Time;durP1;ratioP1;P1;durP2;ratioP2;P2;SDS_P1;SDS_P2;PMS_P1;PMS_P2;Temp;Humidity;BMP_temperature;BMP_pressure;BME280_temperature;BME280_humidity;BME280_pressure;Samples;Min_cycle;Max_cycle;Signal;HPM_P1;HPM_P2
2020/12/15 00:01:55;;;;;;;11.88;8.52;;;;;;;;;;4362245;32;20181;-82
2020/12/15 00:04:26;;;;;;;12.77;8.10;;;;;;;;;;4360585;32;20178;-82
2020/12/15 00:06:51;;;;;;;11.10;7.80;;;;;;;;;;4361875;32;20208;-82
2020/12/15 00:09:28;;;;;;;13.20;8.13;;;;;;;;;;4361263;32;20174;-82
2020/12/15 00:11:56;;;;;;;11.18;7.30;;;;;;;;;;4361378;32;20185;-81
2020/12/15 00:14:21;;;;;;;10.82;7.70;;;;;;;;;;4361715;32;20185;-82
2020/12/15 00:16:46;;;;;;;12.18;7.35;;;;;;;;;;4361477;32;20159;-83
2020/12/15 00:19:15;;;;;;;14.38;8.45;;;;;;;;;;4370746;32;20278;-82
2020/12/15 00:21:41;;;;;;;12.45;7.97;;;;;;;;;;4380120;32;20165;-82
2020/12/15 00:24:07;;;;;;;15.73;8.10;;;;;;;;;;4378576;32;20166;-82
2020/12/15 00:26:32;;;;;;;12.73;8.02;;;;;;;;;;4376547;32;20503;-83
2020/12/15 00:28:57;;;;;;;11.38;7.57;;;;;;;;;;4363160;32;20214;-81
2020/12/15 00:31:23;;;;;;;13.35;8.63;;;;;;;;;;4374162;32;20193;-81
2020/12/15 00:33:48;;;;;;;12.68;8.38;;;;;;;;;;4376314;32;20231;-81
2020/12/15 00:36:20;;;;;;;15.13;9.63;;;;;;;;;;4376429;32;20159;-81
2020/12/15 00:38:45;;;;;;;13.38;9.45;;;;;;;;;;4375791;32;20221;-81
2020/12/15 00:41:10;;;;;;;13.13;9.52;;;;;;;;;;4376526;32;20208;-81
2020/12/15 00:43:36;;;;;;;14.87;9.75;;;;;;;;;;4376567;32;20257;-81
2020/12/15 00:46:01;;;;;;;14.18;9.88;;;;;;;;;;4376112;32;20571;-82
2020/12/15 00:48:27;;;;;;;15.60;10.13;;;;;;;;;;4376831;32;20178;-81
2020/12/15 00:50:52;;;;;;;14.23;10.57;;;;;;;;;;4376325;32;20185;-81
2020/12/15 00:53:17;;;;;;;14.27;9.75;;;;;;;;;;4376351;32;20645;-81
2020/12/15 00:55:43;;;;;;;15.00;10.40;;;;;;;;;;4361658;32;20534;-82
2020/12/15 00:58:08;;;;;;;14.43;10.10;;;;;;;;;;4360909;32;20185;-81
2020/12/15 01:00:33;;;;;;;13.93;10.40;;;;;;;;;;4370695;32;20193;-82
2020/12/15 01:03:47;;;;;;;14.18;10.63;;;;;;;;;;4377668;32;20147;-81
2020/12/15 01:06:12;;;;;;;13.75;10.20;;;;;;;;;;4359107;33;20202;-81
2020/12/15 01:08:37;;;;;;;15.52;10.55;;;;;;;;;;4346267;33;20189;-82
2020/12/15 01:11:05;;;;;;;12.45;9.45;;;;;;;;;;4346113;33;20472;-81
2020/12/15 01:13:30;;;;;;;14.60;9.65;;;;;;;;;;4345904;33;20545;-81
2020/12/15 01:15:56;;;;;;;14.70;9.45;;;;;;;;;;4349029;33;20179;-82
2020/12/15 01:18:22;;;;;;;15.38;10.25;;;;;;;;;;4349536;33;20179;-82
2020/12/15 01:20:47;;;;;;;15.93;10.20;;;;;;;;;;4373347;32;20146;-82
2020/12/15 01:23:13;;;;;;;14.73;9.90;;;;;;;;;;4364207;32;20204;-82
2020/12/15 01:25:40;;;;;;;13.07;9.75;;;;;;;;;;4364384;32;20462;-82
2020/12/15 01:28:06;;;;;;;14.50;9.45;;;;;;;;;;4363861;32;20216;-81
2020/12/15 01:30:34;;;;;;;12.73;9.38;;;;;;;;;;4364066;32;20206;-82
2020/12/15 01:32:59;;;;;;;15.35;9.73;;;;;;;;;;4363808;32;20185;-81
2020/12/15 01:35:27;;;;;;;15.63;9.02;;;;;;;;;;4363724;32;20223;-82
2020/12/15 01:37:52;;;;;;;13.62;9.27;;;;;;;;;;4363972;32;20255;-82
2020/12/15 01:40:19;;;;;;;12.18;9.05;;;;;;;;;;4377344;32;20166;-82
2020/12/15 01:42:44;;;;;;;13.07;9.10;;;;;;;;;;4363248;32;20245;-82
2020/12/15 01:45:09;;;;;;;14.57;8.70;;;;;;;;;;4363762;32;20604;-82
2020/12/15 01:47:35;;;;;;;11.52;8.80;;;;;;;;;;4363546;32;20603;-82
2020/12/15 01:50:00;;;;;;;12.25;8.73;;;;;;;;;;4364042;32;20158;-82
2020/12/15 01:52:28;;;;;;;15.90;9.00;;;;;;;;;;4362951;32;20194;-82
2020/12/15 01:54:53;;;;;;;12.88;8.48;;;;;;;;;;4360856;33;20219;-82
2020/12/15 01:57:19;;;;;;;12.18;8.82;;;;;;;;;;4362890;32;20143;-82
2020/12/15 01:59:45;;;;;;;12.30;8.23;;;;;;;;;;4361121;32;20599;-83
2020/12/15 02:02:10;;;;;;;13.05;8.93;;;;;;;;;;4360861;33;20167;-82
2020/12/15 02:04:35;;;;;;;11.50;8.98;;;;;;;;;;4361923;32;20147;-83
2020/12/15 02:07:01;;;;;;;13.73;9.15;;;;;;;;;;4376227;32;20185;-82
2020/12/15 02:09:26;;;;;;;12.05;9.05;;;;;;;;;;4378672;32;20158;-82
2020/12/15 02:11:52;;;;;;;13.93;9.23;;;;;;;;;;4378299;32;20255;-82
2020/12/15 02:14:18;;;;;;;11.32;8.88;;;;;;;;;;4378364;32;20166;-82
2020/12/15 02:16:48;;;;;;;12.25;9.18;;;;;;;;;;4376066;32;21096;-82
2020/12/15 02:19:17;;;;;;;12.35;8.52;;;;;;;;;;4363059;32;20162;-82
2020/12/15 02:22:09;;;;;;;10.52;8.32;;;;;;;;;;4363034;32;20233;-82
2020/12/15 02:24:34;;;;;;;12.77;8.35;;;;;;;;;;4359855;32;20222;-82
2020/12/15 02:27:07;;;;;;;14.32;9.00;;;;;;;;;;4362776;32;20220;-82
2020/12/15 02:29:39;;;;;;;11.60;7.80;;;;;;;;;;4379720;32;20134;-82
2020/12/15 02:32:04;;;;;;;13.50;8.63;;;;;;;;;;4374648;32;20192;-83
2020/12/15 02:34:41;;;;;;;13.70;8.50;;;;;;;;;;4378364;32;20158;-82
2020/12/15 02:37:13;;;;;;;13.50;8.70;;;;;;;;;;4378277;32;20346;-82
2020/12/15 02:39:39;;;;;;;10.85;8.00;;;;;;;;;;4347970;33;20162;-82
2020/12/15 02:42:04;;;;;;;13.20;8.18;;;;;;;;;;4347843;33;20199;-82
2020/12/15 02:44:29;;;;;;;14.90;8.75;;;;;;;;;;4347969;33;20217;-82
2020/12/15 02:46:57;;;;;;;13.62;8.27;;;;;;;;;;4348056;33;20529;-82
2020/12/15 02:49:22;;;;;;;12.98;7.32;;;;;;;;;;4347837;33;20594;-82
2020/12/15 02:51:48;;;;;;;9.57;7.45;;;;;;;;;;4348052;33;20171;-82
2020/12/15 02:54:13;;;;;;;12.93;8.52;;;;;;;;;;4348217;33;20182;-82
2020/12/15 02:56:41;;;;;;;11.57;8.68;;;;;;;;;;4348161;33;20178;-82
2020/12/15 02:59:07;;;;;;;12.52;8.13;;;;;;;;;;4347718;33;20258;-82
2020/12/15 03:01:37;;;;;;;13.43;8.80;;;;;;;;;;4348029;33;20636;-82
2020/12/15 03:04:02;;;;;;;15.20;8.65;;;;;;;;;;4348149;33;20221;-82
2020/12/15 03:06:30;;;;;;;13.20;8.98;;;;;;;;;;4348181;33;20167;-82
2020/12/15 03:08:55;;;;;;;12.00;8.60;;;;;;;;;;4348375;32;20242;-82
2020/12/15 03:11:22;;;;;;;12.57;8.93;;;;;;;;;;4362368;32;20155;-82
2020/12/15 03:13:47;;;;;;;13.93;9.40;;;;;;;;;;4362345;32;20181;-82
2020/12/15 03:16:15;;;;;;;16.35;9.63;;;;;;;;;;4362262;32;20174;-82
2020/12/15 03:18:40;;;;;;;14.68;9.32;;;;;;;;;;4362555;32;20232;-82
2020/12/15 03:21:08;;;;;;;14.45;10.35;;;;;;;;;;4369255;32;21013;-82
2020/12/15 03:23:33;;;;;;;14.15;9.93;;;;;;;;;;4376987;32;20193;-82
2020/12/15 03:25:58;;;;;;;16.20;10.43;;;;;;;;;;4377868;32;20158;-83
2020/12/15 03:28:27;;;;;;;16.08;10.23;;;;;;;;;;4380028;32;20205;-82
2020/12/15 03:30:52;;;;;;;14.95;10.18;;;;;;;;;;4370969;32;20221;-82
2020/12/15 03:33:30;;;;;;;15.30;10.40;;;;;;;;;;4362571;32;20210;-82
2020/12/15 03:35:56;;;;;;;17.50;11.73;;;;;;;;;;4362285;32;20166;-82
2020/12/15 03:38:35;;;;;;;15.18;10.95;;;;;;;;;;4361400;32;20189;-82
2020/12/15 03:41:01;;;;;;;14.02;9.95;;;;;;;;;;4362380;32;20242;-83
2020/12/15 03:43:26;;;;;;;16.73;10.85;;;;;;;;;;4362084;32;20167;-82
2020/12/15 03:45:51;;;;;;;15.77;10.93;;;;;;;;;;4374324;32;20280;-82
2020/12/15 03:48:19;;;;;;;17.25;10.80;;;;;;;;;;4377100;32;20205;-82
2020/12/15 03:50:48;;;;;;;22.27;12.57;;;;;;;;;;4376801;32;20162;-82
2020/12/15 03:53:16;;;;;;;18.67;11.60;;;;;;;;;;4376720;32;20201;-83
2020/12/15 03:55:41;;;;;;;17.52;12.00;;;;;;;;;;4377480;32;20167;-81
2020/12/15 03:58:06;;;;;;;19.33;12.40;;;;;;;;;;4377016;32;20180;-82
2020/12/15 04:00:32;;;;;;;19.42;12.98;;;;;;;;;;4377249;32;20267;-82
2020/12/15 04:02:57;;;;;;;18.33;12.52;;;;;;;;;;4376459;32;20631;-82
2020/12/15 04:05:22;;;;;;;19.42;12.13;;;;;;;;;;4376779;32;20219;-82
2020/12/15 04:07:48;;;;;;;17.50;11.70;;;;;;;;;;4363337;32;20158;-82
2020/12/15 04:10:17;;;;;;;19.60;12.30;;;;;;;;;;4362375;32;20162;-82
2020/12/15 04:12:45;;;;;;;19.05;12.48;;;;;;;;;;4363803;32;20194;-82
2020/12/15 04:15:13;;;;;;;16.62;11.80;;;;;;;;;;4363472;32;20212;-82
2020/12/15 04:17:43;;;;;;;22.60;13.07;;;;;;;;;;4362829;32;20158;-82
2020/12/15 04:20:08;;;;;;;18.73;13.15;;;;;;;;;;4360684;33;20218;-82
2020/12/15 04:22:35;;;;;;;19.55;12.77;;;;;;;;;;4370381;32;20170;-82
2020/12/15 04:25:03;;;;;;;18.02;12.10;;;;;;;;;;4377966;32;20247;-82
2020/12/15 04:27:28;;;;;;;22.23;13.65;;;;;;;;;;4376841;32;20162;-82
2020/12/15 04:29:58;;;;;;;20.62;12.43;;;;;;;;;;4376298;32;20220;-82
2020/12/15 04:32:26;;;;;;;18.27;11.90;;;;;;;;;;4376281;32;20225;-83
2020/12/15 04:34:53;;;;;;;18.08;11.95;;;;;;;;;;4363767;32;20182;-82
2020/12/15 04:37:21;;;;;;;17.27;12.00;;;;;;;;;;4376680;32;20169;-82
2020/12/15 04:39:46;;;;;;;17.70;11.98;;;;;;;;;;4376471;32;20249;-82
2020/12/15 04:42:12;;;;;;;18.77;12.18;;;;;;;;;;4376162;32;20202;-83
2020/12/15 04:44:38;;;;;;;17.60;11.68;;;;;;;;;;4389630;32;20180;-82
2020/12/15 04:47:26;;;;;;;19.35;12.27;;;;;;;;;;4376094;32;20190;-82
2020/12/15 04:49:59;;;;;;;16.95;11.70;;;;;;;;;;4368143;32;20185;-82
2020/12/15 04:52:29;;;;;;;17.87;11.10;;;;;;;;;;4377687;32;20151;-82
2020/12/15 04:54:57;;;;;;;17.23;11.25;;;;;;;;;;4361589;32;20158;-82
2020/12/15 04:57:22;;;;;;;15.60;11.02;;;;;;;;;;4361102;32;20673;-82
2020/12/15 04:59:48;;;;;;;16.30;11.32;;;;;;;;;;4361634;32;20182;-82
2020/12/15 05:02:14;;;;;;;19.75;12.25;;;;;;;;;;4362970;32;20164;-82
2020/12/15 05:04:39;;;;;;;16.80;11.88;;;;;;;;;;4374764;32;20158;-83
2020/12/15 05:07:05;;;;;;;18.33;10.88;;;;;;;;;;4376076;32;20188;-82
2020/12/15 05:09:32;;;;;;;16.95;11.02;;;;;;;;;;4376077;32;20253;-82
2020/12/15 05:12:01;;;;;;;20.73;12.32;;;;;;;;;;4390340;32;20580;-82
2020/12/15 05:14:26;;;;;;;16.75;11.00;;;;;;;;;;4375724;32;20253;-82
2020/12/15 05:16:52;;;;;;;15.82;10.23;;;;;;;;;;4376360;32;20158;-82
2020/12/15 05:19:17;;;;;;;14.85;10.63;;;;;;;;;;4375982;32;20495;-82
2020/12/15 05:22:01;;;;;;;14.43;10.30;;;;;;;;;;4375983;32;20180;-82
2020/12/15 05:24:28;;;;;;;16.00;10.13;;;;;;;;;;4375496;32;20337;-82
2020/12/15 05:26:59;;;;;;;13.62;10.25;;;;;;;;;;4375856;32;20595;-82
2020/12/15 05:29:24;;;;;;;13.98;10.20;;;;;;;;;;4376243;32;20223;-82
2020/12/15 05:31:50;;;;;;;14.10;9.95;;;;;;;;;;4376612;32;20158;-82
2020/12/15 05:34:26;;;;;;;17.30;10.45;;;;;;;;;;4376242;32;20162;-82
2020/12/15 05:36:59;;;;;;;12.37;9.38;;;;;;;;;;4375578;32;20198;-82
2020/12/15 05:39:25;;;;;;;18.25;10.35;;;;;;;;;;4363189;32;20175;-82
2020/12/15 05:42:19;;;;;;;14.55;10.43;;;;;;;;;;4375604;32;20241;-82
2020/12/15 05:44:45;;;;;;;14.10;9.95;;;;;;;;;;4376127;32;20224;-82
2020/12/15 05:47:10;;;;;;;14.10;9.68;;;;;;;;;;4375669;32;20595;-82
2020/12/15 05:49:39;;;;;;;16.27;10.75;;;;;;;;;;4376197;32;20185;-82
2020/12/15 05:52:06;;;;;;;13.38;9.73;;;;;;;;;;4375669;32;20185;-82
2020/12/15 05:54:36;;;;;;;15.40;10.25;;;;;;;;;;4375639;32;20220;-82
2020/12/15 05:57:07;;;;;;;15.75;9.50;;;;;;;;;;4363624;32;20158;-82
2020/12/15 05:59:33;;;;;;;27.40;15.20;;;;;;;;;;4375488;32;20262;-82
2020/12/15 06:02:08;;;;;;;17.95;10.70;;;;;;;;;;4377010;32;20166;-82
2020/12/15 06:04:43;;;;;;;13.07;9.63;;;;;;;;;;4391947;32;20153;-82
2020/12/15 06:07:10;;;;;;;18.70;10.68;;;;;;;;;;4378232;32;20207;-82
2020/12/15 06:09:47;;;;;;;16.25;9.57;;;;;;;;;;4378265;32;20158;-81
2020/12/15 06:12:13;;;;;;;16.08;10.60;;;;;;;;;;4378893;32;20201;-82
2020/12/15 06:14:40;;;;;;;14.82;9.90;;;;;;;;;;4366977;32;20185;-82
2020/12/15 06:17:28;;;;;;;18.08;10.35;;;;;;;;;;4360804;33;20588;-82
2020/12/15 06:19:54;;;;;;;14.27;10.13;;;;;;;;;;4360877;33;20183;-82
2020/12/15 06:22:22;;;;;;;14.98;10.73;;;;;;;;;;4365386;32;20174;-82
2020/12/15 06:25:16;;;;;;;15.20;10.27;;;;;;;;;;4377981;32;20191;-82
2020/12/15 06:27:42;;;;;;;17.55;10.38;;;;;;;;;;4376297;32;20158;-82
2020/12/15 06:30:17;;;;;;;14.63;10.48;;;;;;;;;;4378380;32;20158;-82
2020/12/15 06:32:45;;;;;;;15.18;10.07;;;;;;;;;;4378164;32;20220;-81
2020/12/15 06:35:23;;;;;;;17.85;10.77;;;;;;;;;;4380408;32;20189;-81
2020/12/15 06:37:52;;;;;;;14.85;10.02;;;;;;;;;;4381799;32;20165;-84
2020/12/15 06:40:32;;;;;;;16.92;10.50;;;;;;;;;;4391818;32;20134;-84
2020/12/15 06:43:04;;;;;;;16.83;11.00;;;;;;;;;;4378383;32;20173;-84
2020/12/15 06:45:49;;;;;;;15.85;10.80;;;;;;;;;;4390893;32;20516;-84
2020/12/15 06:48:21;;;;;;;14.60;9.82;;;;;;;;;;4362933;32;20197;-84
2020/12/15 06:50:55;;;;;;;13.90;9.95;;;;;;;;;;4363176;32;20226;-85
2020/12/15 06:53:25;;;;;;;17.90;10.75;;;;;;;;;;4363103;32;20162;-85
2020/12/15 06:56:15;;;;;;;14.98;11.07;;;;;;;;;;4362807;32;20232;-84
2020/12/15 06:58:58;;;;;;;13.98;9.95;;;;;;;;;;4377128;32;20126;-84
2020/12/15 07:01:33;;;;;;;18.02;10.43;;;;;;;;;;4362625;32;20212;-84
2020/12/15 07:04:10;;;;;;;15.55;9.88;;;;;;;;;;4362895;32;20189;-83
2020/12/15 07:06:41;;;;;;;12.90;9.20;;;;;;;;;;4362665;32;20158;-84
2020/12/15 07:09:10;;;;;;;14.95;9.75;;;;;;;;;;4362436;32;20214;-83
2020/12/15 07:11:43;;;;;;;14.48;9.20;;;;;;;;;;4362342;32;20170;-82
2020/12/15 07:14:18;;;;;;;14.00;9.80;;;;;;;;;;4362925;32;20205;-82
2020/12/15 07:16:47;;;;;;;15.85;9.20;;;;;;;;;;4362956;32;20174;-80
2020/12/15 07:19:23;;;;;;;13.60;9.85;;;;;;;;;;4362387;32;20166;-81
2020/12/15 07:21:50;;;;;;;18.50;10.93;;;;;;;;;;4362654;32;20265;-81
2020/12/15 07:24:16;;;;;;;13.40;8.98;;;;;;;;;;4364475;32;20201;-80
2020/12/15 07:26:42;;;;;;;14.65;9.80;;;;;;;;;;4390554;32;20567;-81
2020/12/15 07:29:08;;;;;;;16.35;9.95;;;;;;;;;;4377279;32;20241;-81
2020/12/15 07:31:33;;;;;;;18.12;10.27;;;;;;;;;;4377041;32;20236;-81
2020/12/15 07:34:06;;;;;;;13.35;9.05;;;;;;;;;;4371705;32;20508;-81
2020/12/15 07:36:32;;;;;;;13.77;9.40;;;;;;;;;;4354015;32;20170;-81
2020/12/15 07:38:58;;;;;;;17.08;9.93;;;;;;;;;;4369974;32;20227;-81
2020/12/15 07:41:24;;;;;;;16.27;9.20;;;;;;;;;;4367721;32;20239;-81
2020/12/15 07:43:55;;;;;;;16.45;9.63;;;;;;;;;;4367853;32;20596;-80
2020/12/15 07:46:23;;;;;;;15.52;9.65;;;;;;;;;;4381775;32;20197;-80
2020/12/15 07:48:49;;;;;;;13.52;9.20;;;;;;;;;;4367783;32;20229;-81
2020/12/15 07:51:14;;;;;;;14.65;9.80;;;;;;;;;;4368474;32;20266;-81
2020/12/15 07:53:48;;;;;;;15.50;10.00;;;;;;;;;;4369618;32;20275;-80
2020/12/15 07:56:19;;;;;;;16.17;9.80;;;;;;;;;;4367150;32;20210;-81
2020/12/15 07:58:47;;;;;;;17.23;9.30;;;;;;;;;;4369312;32;20209;-82
2020/12/15 08:01:19;;;;;;;14.80;9.50;;;;;;;;;;4368900;32;20249;-82
2020/12/15 08:03:45;;;;;;;17.42;9.77;;;;;;;;;;4368189;32;20170;-82
2020/12/15 08:06:10;;;;;;;15.43;10.23;;;;;;;;;;4369519;32;20213;-82
2020/12/15 08:08:41;;;;;;;17.17;10.57;;;;;;;;;;4369832;32;20162;-81
2020/12/15 08:11:22;;;;;;;18.15;10.73;;;;;;;;;;4367336;32;20635;-81
2020/12/15 08:13:48;;;;;;;17.55;10.15;;;;;;;;;;4353419;32;20225;-80
2020/12/15 08:16:14;;;;;;;15.27;9.93;;;;;;;;;;4369002;32;20170;-80
2020/12/15 08:18:42;;;;;;;16.17;10.20;;;;;;;;;;4368596;32;20196;-80
2020/12/15 08:21:12;;;;;;;16.60;10.70;;;;;;;;;;4368187;32;20619;-81
2020/12/15 08:23:39;;;;;;;15.45;10.45;;;;;;;;;;4367413;32;20186;-80
2020/12/15 08:26:05;;;;;;;15.93;11.20;;;;;;;;;;4370408;32;20181;-80
2020/12/15 08:28:31;;;;;;;17.00;11.15;;;;;;;;;;4366962;32;20166;-80
2020/12/15 08:30:59;;;;;;;21.02;11.35;;;;;;;;;;4365921;32;20485;-80
2020/12/15 08:33:26;;;;;;;18.75;11.57;;;;;;;;;;4380036;32;20150;-81
2020/12/15 08:35:52;;;;;;;18.77;10.75;;;;;;;;;;4370523;32;20221;-80
2020/12/15 08:38:17;;;;;;;16.35;11.40;;;;;;;;;;4364674;32;20530;-82
2020/12/15 08:40:44;;;;;;;17.45;11.38;;;;;;;;;;4368545;32;20221;-82
2020/12/15 08:43:12;;;;;;;16.65;10.75;;;;;;;;;;4368689;32;20506;-80
2020/12/15 08:45:37;;;;;;;15.13;10.75;;;;;;;;;;4365622;32;20232;-80
2020/12/15 08:48:03;;;;;;;16.73;11.48;;;;;;;;;;4367898;32;20209;-80
2020/12/15 08:50:29;;;;;;;18.65;12.15;;;;;;;;;;4368184;32;20626;-80
2020/12/15 08:53:06;;;;;;;16.65;11.30;;;;;;;;;;4366497;32;20237;-80
2020/12/15 08:55:33;;;;;;;21.62;11.52;;;;;;;;;;4365457;32;20204;-80
2020/12/15 08:57:59;;;;;;;17.15;11.73;;;;;;;;;;4367168;32;20216;-80
2020/12/15 09:00:24;;;;;;;17.48;11.02;;;;;;;;;;4365312;32;20488;-81
2020/12/15 09:02:50;;;;;;;17.85;11.07;;;;;;;;;;4381856;32;20237;-80
2020/12/15 09:05:18;;;;;;;16.98;10.93;;;;;;;;;;4356747;32;20189;-81
2020/12/15 09:07:43;;;;;;;17.25;11.18;;;;;;;;;;4366419;32;20266;-80
2020/12/15 09:10:14;;;;;;;16.10;10.77;;;;;;;;;;4365272;32;20248;-80
2020/12/15 09:12:47;;;;;;;17.23;10.90;;;;;;;;;;4367616;32;20159;-80
2020/12/15 09:15:13;;;;;;;15.50;11.00;;;;;;;;;;4365274;32;20620;-80
2020/12/15 09:17:39;;;;;;;17.85;10.95;;;;;;;;;;4381935;32;20146;-80
2020/12/15 09:20:05;;;;;;;14.87;10.80;;;;;;;;;;4366453;32;20171;-81
2020/12/15 09:22:30;;;;;;;16.05;10.95;;;;;;;;;;4363603;32;20185;-80
2020/12/15 09:25:01;;;;;;;20.50;12.05;;;;;;;;;;4365495;32;20175;-81
2020/12/15 09:27:26;;;;;;;17.05;11.10;;;;;;;;;;4369051;32;20157;-81
2020/12/15 09:29:51;;;;;;;15.57;11.25;;;;;;;;;;4367587;32;20197;-81
2020/12/15 09:32:20;;;;;;;17.60;11.07;;;;;;;;;;4368363;32;20223;-81
2020/12/15 09:34:46;;;;;;;17.25;11.65;;;;;;;;;;4368444;32;20193;-80
2020/12/15 09:37:12;;;;;;;16.52;11.15;;;;;;;;;;4371167;32;20225;-80
2020/12/15 09:39:43;;;;;;;16.25;10.63;;;;;;;;;;4371614;32;20167;-81
2020/12/15 09:42:11;;;;;;;15.98;10.75;;;;;;;;;;4370209;32;20155;-80
2020/12/15 09:44:37;;;;;;;18.02;11.35;;;;;;;;;;4371304;32;20161;-81
2020/12/15 09:47:03;;;;;;;19.80;12.02;;;;;;;;;;4374388;32;20201;-81
2020/12/15 09:49:28;;;;;;;14.75;11.43;;;;;;;;;;4363888;32;20654;-81
2020/12/15 09:51:53;;;;;;;19.42;11.85;;;;;;;;;;4363478;32;20155;-80
2020/12/15 09:54:18;;;;;;;16.60;11.20;;;;;;;;;;4376149;32;20139;-80
2020/12/15 09:56:44;;;;;;;14.80;11.45;;;;;;;;;;4363337;32;20224;-81
2020/12/15 09:59:10;;;;;;;17.58;11.80;;;;;;;;;;4384731;32;20135;-80
2020/12/15 10:01:35;;;;;;;18.00;11.45;;;;;;;;;;4378328;32;20151;-81
2020/12/15 10:04:01;;;;;;;17.00;11.12;;;;;;;;;;4392276;32;20142;-80
2020/12/15 10:06:29;;;;;;;15.25;10.35;;;;;;;;;;4391933;32;20548;-80
2020/12/15 10:08:54;;;;;;;17.23;12.13;;;;;;;;;;4378221;32;20216;-80
2020/12/15 10:11:21;;;;;;;18.77;12.65;;;;;;;;;;4378441;32;20150;-80
2020/12/15 10:13:47;;;;;;;15.32;11.18;;;;;;;;;;4378390;32;20169;-80
2020/12/15 10:16:12;;;;;;;19.20;12.32;;;;;;;;;;4378398;32;20826;-80
2020/12/15 10:18:37;;;;;;;18.80;12.27;;;;;;;;;;4379159;32;20588;-81
2020/12/15 10:21:03;;;;;;;22.92;12.25;;;;;;;;;;4392251;32;20166;-81
2020/12/15 10:23:29;;;;;;;16.75;12.27;;;;;;;;;;4378347;32;20530;-82
2020/12/15 10:25:59;;;;;;;19.02;12.48;;;;;;;;;;4392377;32;20177;-81
2020/12/15 10:28:27;;;;;;;18.90;12.63;;;;;;;;;;4392325;32;20123;-82
2020/12/15 10:30:52;;;;;;;19.62;12.55;;;;;;;;;;4378394;32;20162;-81
2020/12/15 10:33:20;;;;;;;20.77;13.20;;;;;;;;;;4378480;32;20154;-80
2020/12/15 10:35:45;;;;;;;16.33;11.85;;;;;;;;;;4378409;32;20149;-81
2020/12/15 10:38:11;;;;;;;20.23;12.77;;;;;;;;;;4377467;32;20512;-81
2020/12/15 10:40:36;;;;;;;19.05;12.18;;;;;;;;;;4391682;32;20146;-81
2020/12/15 10:43:02;;;;;;;18.23;12.98;;;;;;;;;;4378394;32;20158;-81
2020/12/15 10:45:27;;;;;;;18.35;13.10;;;;;;;;;;4378050;32;20440;-81
2020/12/15 10:47:54;;;;;;;21.95;13.75;;;;;;;;;;4377088;32;20264;-81
2020/12/15 10:50:19;;;;;;;19.33;13.27;;;;;;;;;;4377915;32;20201;-81
2020/12/15 10:52:45;;;;;;;20.62;13.75;;;;;;;;;;4377536;32;20491;-80
2020/12/15 10:55:10;;;;;;;22.25;13.52;;;;;;;;;;4362765;32;20563;-80
2020/12/15 10:57:37;;;;;;;21.42;13.82;;;;;;;;;;4377197;32;20155;-80
2020/12/15 11:00:06;;;;;;;19.48;13.88;;;;;;;;;;4376256;32;20158;-80
2020/12/15 11:02:32;;;;;;;22.27;13.93;;;;;;;;;;4359812;32;20508;-80
2020/12/15 11:05:08;;;;;;;23.05;14.15;;;;;;;;;;4361606;32;20135;-80
2020/12/15 11:07:34;;;;;;;19.25;13.13;;;;;;;;;;4361430;33;20127;-80
2020/12/15 11:09:59;;;;;;;22.13;13.80;;;;;;;;;;4360190;33;20536;-80
2020/12/15 11:12:25;;;;;;;23.95;14.93;;;;;;;;;;4360024;32;20638;-80
2020/12/15 11:14:58;;;;;;;21.23;13.38;;;;;;;;;;4361277;33;20136;-80
2020/12/15 11:17:23;;;;;;;20.62;13.52;;;;;;;;;;4359848;33;20261;-80
2020/12/15 11:19:48;;;;;;;22.23;13.70;;;;;;;;;;4359628;33;20201;-81
2020/12/15 11:22:16;;;;;;;22.37;14.15;;;;;;;;;;4361122;32;20182;-80
2020/12/15 11:24:43;;;;;;;23.85;14.57;;;;;;;;;;4361215;32;20169;-80
2020/12/15 11:27:09;;;;;;;22.08;14.32;;;;;;;;;;4361259;32;20438;-80
2020/12/15 11:29:34;;;;;;;21.67;13.93;;;;;;;;;;4361051;33;20388;-80
2020/12/15 11:32:00;;;;;;;21.37;13.75;;;;;;;;;;4361632;32;20549;-80
2020/12/15 11:34:25;;;;;;;21.20;14.48;;;;;;;;;;4359789;32;20162;-81
2020/12/15 11:36:54;;;;;;;21.23;14.48;;;;;;;;;;4359610;33;20182;-81
2020/12/15 11:39:22;;;;;;;22.30;14.32;;;;;;;;;;4361254;32;20135;-80
2020/12/15 11:41:52;;;;;;;20.80;14.27;;;;;;;;;;4359425;33;20151;-80
2020/12/15 11:44:18;;;;;;;22.92;14.13;;;;;;;;;;4358679;32;20180;-80
2020/12/15 11:46:57;;;;;;;23.48;14.40;;;;;;;;;;4360091;32;20205;-80
2020/12/15 11:49:23;;;;;;;23.85;14.32;;;;;;;;;;4374592;32;20209;-80
2020/12/15 11:51:51;;;;;;;22.62;15.38;;;;;;;;;;4361914;32;20158;-80
2020/12/15 11:54:17;;;;;;;22.00;15.38;;;;;;;;;;4374901;32;20169;-80
2020/12/15 11:56:43;;;;;;;24.67;15.82;;;;;;;;;;4360928;32;20201;-80
2020/12/15 11:59:11;;;;;;;23.67;15.10;;;;;;;;;;4360637;32;20420;-80
2020/12/15 12:01:36;;;;;;;23.08;14.35;;;;;;;;;;4358915;33;20181;-80
2020/12/15 12:04:02;;;;;;;22.75;14.65;;;;;;;;;;4361564;32;20167;-80
2020/12/15 12:06:30;;;;;;;23.30;15.68;;;;;;;;;;4375401;32;20162;-81
2020/12/15 12:08:56;;;;;;;25.75;16.15;;;;;;;;;;4361833;32;20618;-81
2020/12/15 12:11:21;;;;;;;27.62;17.05;;;;;;;;;;4362041;32;20158;-80
2020/12/15 12:13:47;;;;;;;23.10;15.02;;;;;;;;;;4361698;32;20181;-80
2020/12/15 12:16:12;;;;;;;22.35;16.27;;;;;;;;;;4375192;32;20181;-81
2020/12/15 12:18:37;;;;;;;24.00;16.17;;;;;;;;;;4376673;32;20497;-81
2020/12/15 12:21:03;;;;;;;24.77;15.93;;;;;;;;;;4363631;32;20265;-80
2020/12/15 12:23:31;;;;;;;24.60;15.35;;;;;;;;;;4363667;32;20159;-81
2020/12/15 12:25:56;;;;;;;25.85;16.02;;;;;;;;;;4372261;32;20341;-80
2020/12/15 12:28:25;;;;;;;21.77;14.80;;;;;;;;;;4369290;32;20599;-80
2020/12/15 12:30:53;;;;;;;22.73;15.05;;;;;;;;;;4389950;32;20134;-80
2020/12/15 12:33:19;;;;;;;23.90;15.93;;;;;;;;;;4376390;32;20181;-80
2020/12/15 12:35:51;;;;;;;24.73;15.27;;;;;;;;;;4375997;32;20233;-80
2020/12/15 12:38:16;;;;;;;23.38;15.35;;;;;;;;;;4389884;32;20205;-80
2020/12/15 12:40:41;;;;;;;23.70;15.80;;;;;;;;;;4375853;32;20196;-80
2020/12/15 12:43:07;;;;;;;23.70;15.48;;;;;;;;;;4376097;32;20177;-80
2020/12/15 12:45:32;;;;;;;27.40;17.00;;;;;;;;;;4375411;32;20201;-80
2020/12/15 12:48:00;;;;;;;25.10;16.67;;;;;;;;;;4375887;32;20163;-80
2020/12/15 12:50:28;;;;;;;24.27;16.83;;;;;;;;;;4375791;32;20189;-80
2020/12/15 12:52:54;;;;;;;24.30;15.73;;;;;;;;;;4389909;32;20184;-80
2020/12/15 12:55:19;;;;;;;24.12;15.13;;;;;;;;;;4376140;32;20158;-80
2020/12/15 12:57:46;;;;;;;22.42;16.15;;;;;;;;;;4389996;32;20134;-80
2020/12/15 13:00:13;;;;;;;22.48;15.27;;;;;;;;;;4375954;32;20666;-79
2020/12/15 13:02:42;;;;;;;20.02;14.30;;;;;;;;;;4389515;32;20123;-80
2020/12/15 13:05:07;;;;;;;17.77;12.77;;;;;;;;;;4389609;32;20217;-80
2020/12/15 13:07:33;;;;;;;18.52;12.65;;;;;;;;;;4376182;32;20258;-80
2020/12/15 13:09:58;;;;;;;21.65;13.30;;;;;;;;;;4375785;32;20185;-81
2020/12/15 13:12:23;;;;;;;18.37;13.05;;;;;;;;;;4393034;32;20802;-80
2020/12/15 13:14:52;;;;;;;17.30;12.32;;;;;;;;;;4374181;32;20215;-81
2020/12/15 13:17:37;;;;;;;18.23;11.40;;;;;;;;;;4364058;32;20233;-80
2020/12/15 13:20:03;;;;;;;14.75;10.95;;;;;;;;;;4363857;32;20162;-80
2020/12/15 13:22:32;;;;;;;17.15;11.65;;;;;;;;;;4363859;32;20182;-80
2020/12/15 13:25:00;;;;;;;15.45;11.35;;;;;;;;;;4351703;32;20213;-81
2020/12/15 13:27:25;;;;;;;17.30;11.88;;;;;;;;;;4364073;32;20552;-80
2020/12/15 13:29:50;;;;;;;18.48;11.15;;;;;;;;;;4392420;32;20165;-80
2020/12/15 13:32:16;;;;;;;16.20;11.30;;;;;;;;;;4373302;32;20150;-82
2020/12/15 13:34:44;;;;;;;17.25;11.27;;;;;;;;;;4358455;32;20179;-80
2020/12/15 13:37:13;;;;;;;19.27;11.57;;;;;;;;;;4358036;32;20221;-81
2020/12/15 13:39:44;;;;;;;19.80;11.93;;;;;;;;;;4376794;32;20181;-81
2020/12/15 13:42:09;;;;;;;19.60;12.45;;;;;;;;;;4366019;32;20150;-80
2020/12/15 13:44:35;;;;;;;15.88;11.80;;;;;;;;;;4370435;32;21063;-80
2020/12/15 13:47:04;;;;;;;17.02;12.15;;;;;;;;;;4360841;32;20186;-80
2020/12/15 13:49:30;;;;;;;22.02;13.70;;;;;;;;;;4377138;32;20254;-80
2020/12/15 13:51:55;;;;;;;23.08;13.75;;;;;;;;;;4363065;32;20170;-80
2020/12/15 13:54:24;;;;;;;21.90;14.43;;;;;;;;;;4362945;32;20186;-80
2020/12/15 13:56:58;;;;;;;19.48;14.40;;;;;;;;;;4377000;32;20281;-81
2020/12/15 13:59:23;;;;;;;21.58;14.18;;;;;;;;;;4363341;32;20299;-81
2020/12/15 14:01:51;;;;;;;20.65;14.80;;;;;;;;;;4377010;32;20205;-81
2020/12/15 14:04:17;;;;;;;21.92;15.07;;;;;;;;;;4362592;32;20162;-80
2020/12/15 14:06:42;;;;;;;20.98;15.20;;;;;;;;;;4362694;32;20212;-81
2020/12/15 14:09:08;;;;;;;22.33;15.60;;;;;;;;;;4363456;32;20739;-81
2020/12/15 14:11:33;;;;;;;24.87;16.40;;;;;;;;;;4363035;32;20228;-81
2020/12/15 14:13:58;;;;;;;27.65;17.17;;;;;;;;;;4387289;32;20135;-81
2020/12/15 14:16:24;;;;;;;20.75;16.48;;;;;;;;;;4363537;32;20685;-80
2020/12/15 14:18:49;;;;;;;25.15;16.58;;;;;;;;;;4362908;32;20185;-81
2020/12/15 14:21:14;;;;;;;25.52;15.77;;;;;;;;;;4362640;32;20201;-81
2020/12/15 14:23:39;;;;;;;24.80;16.40;;;;;;;;;;4362197;32;20162;-81
2020/12/15 14:26:05;;;;;;;26.27;16.67;;;;;;;;;;4351263;32;20437;-80